createdAt,value
2023-02-18T00:00:29.422Z,22.34
2023-02-18T00:02:56.337Z,22.66
2023-02-18T00:05:23.079Z,23.00
2023-02-18T00:07:49.918Z,23.73
2023-02-18T00:10:17.746Z,24.25
2023-02-18T00:12:45.414Z,25.08
2023-02-18T00:15:12.357Z,24.72
2023-02-18T00:17:38.917Z,26.43
2023-02-18T00:20:07.363Z,26.60
2023-02-18T00:22:33.914Z,26.55
2023-02-18T00:25:00.498Z,26.81
2023-02-18T00:27:27.027Z,26.70
2023-02-18T00:29:53.637Z,26.73
2023-02-18T00:32:20.222Z,26.21
2023-02-18T00:34:46.766Z,28.16
2023-02-18T00:37:13.370Z,28.22
2023-02-18T00:39:40.044Z,28.48
2023-02-18T00:42:06.683Z,28.73
2023-02-18T00:44:33.245Z,28.13
2023-02-18T00:46:59.870Z,27.91
2023-02-18T00:49:26.635Z,27.93
2023-02-18T00:51:53.193Z,28.23
2023-02-18T00:54:19.825Z,27.72
2023-02-18T00:56:46.353Z,27.50
2023-02-18T00:59:12.917Z,27.20
2023-02-18T01:01:39.602Z,28.00
2023-02-18T01:04:06.165Z,27.48
2023-02-18T01:06:32.819Z,26.38
2023-02-18T01:08:59.380Z,27.14
2023-02-18T01:11:26.130Z,26.18
2023-02-18T01:13:53.179Z,25.99
2023-02-18T01:16:19.772Z,25.76
2023-02-18T01:18:46.576Z,23.91
2023-02-18T01:21:13.493Z,22.90
2023-02-18T01:23:41.964Z,21.83
2023-02-18T01:26:10.359Z,21.21
2023-02-18T01:28:37.946Z,21.47
2023-02-18T01:31:10.561Z,21.41
2023-02-18T01:33:38.121Z,20.19
2023-02-18T01:36:05.263Z,20.19
2023-02-18T01:38:32.085Z,20.05
2023-02-18T01:40:59.294Z,19.43
2023-02-18T01:43:25.895Z,18.84
2023-02-18T01:45:55.284Z,17.43
2023-02-18T01:48:27.688Z,17.32
2023-02-18T01:51:00.786Z,17.53
2023-02-18T01:53:45.618Z,17.42
2023-02-18T01:56:20.899Z,18.24
2023-02-18T01:58:48.676Z,17.91
2023-02-18T02:01:15.723Z,18.74
2023-02-18T02:03:42.302Z,18.45
2023-02-18T02:06:21.866Z,17.56
2023-02-18T02:08:51.749Z,17.74
2023-02-18T02:11:44.502Z,18.63
2023-02-18T02:14:23.095Z,18.80
2023-02-18T02:17:01.620Z,19.37
2023-02-18T02:19:48.029Z,19.41
2023-02-18T02:22:43.928Z,19.82
2023-02-18T02:25:38.035Z,20.29
2023-02-18T02:28:25.664Z,20.23
2023-02-18T02:31:08.205Z,20.40
2023-02-18T02:33:48.816Z,20.14
2023-02-18T02:36:38.460Z,21.03
2023-02-18T02:39:45.367Z,20.78
2023-02-18T02:42:58.909Z,21.91
2023-02-18T02:45:34.408Z,22.06
2023-02-18T02:48:29.676Z,22.90
2023-02-18T02:51:15.581Z,22.75
2023-02-18T02:53:43.749Z,22.83
2023-02-18T02:56:18.769Z,23.06
2023-02-18T02:58:55.169Z,22.40
2023-02-18T03:01:21.715Z,21.74
2023-02-18T03:04:10.011Z,21.88
2023-02-18T03:06:58.469Z,21.94
2023-02-18T03:09:45.967Z,21.13
2023-02-18T03:12:19.645Z,21.08
2023-02-18T03:14:58.845Z,20.84
2023-02-18T03:17:33.605Z,20.73
2023-02-18T03:20:15.781Z,21.15
2023-02-18T03:22:49.311Z,20.65
2023-02-18T03:25:18.183Z,20.93
2023-02-18T03:27:52.598Z,20.78
2023-02-18T03:30:42.133Z,19.96
2023-02-18T03:33:14.269Z,19.74
2023-02-18T03:35:44.537Z,19.23
2023-02-18T03:38:27.006Z,18.11
2023-02-18T03:40:53.755Z,17.61
2023-02-18T03:43:20.311Z,17.64
2023-02-18T03:45:46.886Z,16.56
2023-02-18T03:48:14.048Z,15.50
2023-02-18T03:50:40.549Z,15.14
2023-02-18T03:53:07.126Z,14.33
2023-02-18T03:55:33.711Z,14.37
2023-02-18T03:58:00.226Z,12.44
2023-02-18T04:00:26.765Z,11.59
2023-02-18T04:02:53.307Z,10.81
2023-02-18T04:05:19.813Z,9.56
2023-02-18T04:07:46.339Z,8.22
2023-02-18T04:10:13.185Z,7.02
2023-02-18T04:12:39.942Z,6.49
2023-02-18T04:15:06.591Z,6.69
2023-02-18T04:17:34.473Z,5.79
2023-02-18T04:20:01.075Z,5.75
2023-02-18T04:22:27.641Z,5.05
2023-02-18T04:24:54.192Z,4.67
2023-02-18T04:27:20.721Z,5.04
2023-02-18T04:29:47.499Z,4.33
2023-02-18T04:32:14.045Z,4.09
2023-02-18T04:34:40.580Z,4.32
2023-02-18T04:37:07.114Z,4.51
2023-02-18T04:39:33.602Z,4.74
2023-02-18T04:42:00.186Z,4.93
2023-02-18T04:44:26.820Z,5.16
2023-02-18T04:46:53.402Z,5.26
2023-02-18T04:49:19.920Z,5.17
2023-02-18T04:51:46.408Z,5.67
2023-02-18T04:54:12.990Z,5.82
2023-02-18T04:56:39.478Z,6.13
2023-02-18T04:59:06.066Z,5.94
2023-02-18T05:01:32.686Z,5.37
2023-02-18T05:03:59.240Z,5.57
2023-02-18T05:06:25.824Z,5.73
2023-02-18T05:08:52.663Z,5.97
2023-02-18T05:11:19.288Z,6.54
2023-02-18T05:13:45.791Z,7.10
2023-02-18T05:16:12.622Z,6.90
2023-02-18T05:18:39.616Z,7.59
2023-02-18T05:21:06.555Z,7.37
2023-02-18T05:23:33.253Z,7.80
2023-02-18T05:25:59.820Z,7.41
2023-02-18T05:28:26.311Z,7.74
2023-02-18T05:30:52.835Z,7.54
2023-02-18T05:33:19.380Z,7.60
2023-02-18T05:35:45.910Z,7.31
2023-02-18T05:38:12.494Z,7.36
2023-02-18T05:40:39.129Z,6.94
2023-02-18T05:43:05.665Z,7.26
2023-02-18T05:45:32.370Z,7.70
2023-02-18T05:47:58.953Z,8.53
2023-02-18T05:50:25.562Z,9.17
2023-02-18T05:52:52.077Z,9.65
2023-02-18T05:55:18.688Z,10.84
2023-02-18T05:57:45.300Z,12.97
2023-02-18T06:00:12.570Z,15.05
2023-02-18T06:02:39.412Z,17.06
2023-02-18T06:05:06.462Z,16.68
2023-02-18T06:07:32.980Z,17.33
2023-02-18T06:09:59.552Z,16.86
2023-02-18T06:12:26.259Z,16.19
2023-02-18T06:14:52.797Z,15.04
2023-02-18T06:17:19.500Z,15.37
2023-02-18T06:19:46.159Z,15.68
2023-02-18T06:22:12.700Z,15.62
2023-02-18T06:24:39.592Z,15.88
2023-02-18T06:27:06.761Z,15.78
2023-02-18T06:29:33.378Z,16.25
2023-02-18T06:32:00.261Z,16.22
2023-02-18T06:34:27.371Z,16.52
2023-02-18T06:36:53.955Z,16.51
2023-02-18T06:39:20.488Z,16.38
2023-02-18T06:41:47.100Z,17.07
2023-02-18T06:44:15.367Z,17.86
2023-02-18T06:46:41.947Z,16.72
2023-02-18T06:49:08.574Z,15.08
2023-02-18T06:51:35.184Z,13.89
2023-02-18T06:54:01.700Z,13.12
2023-02-18T06:56:30.687Z,12.63
2023-02-18T06:58:57.478Z,12.74
2023-02-18T07:01:24.042Z,12.92
2023-02-18T07:03:50.848Z,12.55
2023-02-18T07:06:17.544Z,12.95
2023-02-18T07:08:44.097Z,14.20
2023-02-18T07:11:10.755Z,15.50
2023-02-18T07:13:37.381Z,17.74
2023-02-18T07:16:04.263Z,18.49
2023-02-18T07:18:30.851Z,17.64
2023-02-18T07:20:59.528Z,17.41
2023-02-18T07:23:26.075Z,17.23
2023-02-18T07:25:52.676Z,16.70
2023-02-18T07:28:19.238Z,18.17
2023-02-18T07:30:45.765Z,18.16
2023-02-18T07:33:14.090Z,20.76
2023-02-18T07:35:40.664Z,18.77
2023-02-18T07:38:07.237Z,18.31
2023-02-18T07:40:33.804Z,17.94
2023-02-18T07:43:00.369Z,18.27
2023-02-18T07:45:26.933Z,19.10
2023-02-18T07:47:53.586Z,18.00
2023-02-18T07:50:20.149Z,17.24
2023-02-18T07:52:46.699Z,18.53
2023-02-18T07:55:13.206Z,16.66
2023-02-18T07:57:57.244Z,15.91
2023-02-18T08:00:24.020Z,17.09
2023-02-18T08:02:50.677Z,15.19
2023-02-18T08:05:17.234Z,14.50
2023-02-18T08:07:44.095Z,11.73
2023-02-18T08:10:10.829Z,9.16
2023-02-18T08:12:37.484Z,9.92
2023-02-18T08:15:04.911Z,9.01
2023-02-18T08:17:31.487Z,7.95
2023-02-18T08:19:58.142Z,7.63
2023-02-18T08:22:24.711Z,7.60
2023-02-18T08:24:51.278Z,6.75
2023-02-18T08:27:18.279Z,6.86
2023-02-18T08:29:44.910Z,7.06
2023-02-18T08:32:11.613Z,6.95
2023-02-18T08:34:38.193Z,8.48
2023-02-18T08:37:04.891Z,6.05
2023-02-18T08:39:39.965Z,5.90
2023-02-18T08:42:07.018Z,6.42
2023-02-18T08:44:33.641Z,6.61
2023-02-18T08:47:00.247Z,6.99
2023-02-18T08:49:26.918Z,6.48
2023-02-18T08:51:53.981Z,5.51
2023-02-18T08:54:20.558Z,5.33
2023-02-18T08:56:47.154Z,8.22
2023-02-18T08:59:13.688Z,7.54
2023-02-18T09:01:40.224Z,9.41
2023-02-18T09:04:06.849Z,8.02
2023-02-18T09:06:37.709Z,5.41
2023-02-18T09:09:04.582Z,6.37
2023-02-18T09:11:31.142Z,4.33
2023-02-18T09:13:57.728Z,4.36
2023-02-18T09:16:26.172Z,4.98
2023-02-18T09:18:52.868Z,7.32
2023-02-18T09:21:20.647Z,9.98
2023-02-18T09:23:47.305Z,6.79
2023-02-18T09:26:16.998Z,6.02
2023-02-18T09:28:44.874Z,5.14
2023-02-18T09:31:16.278Z,5.81
2023-02-18T09:33:46.505Z,5.88
2023-02-18T09:36:13.682Z,5.35
2023-02-18T09:38:40.226Z,5.57
2023-02-18T09:41:17.422Z,4.01
2023-02-18T09:43:48.301Z,5.47
2023-02-18T09:46:23.257Z,5.88
2023-02-18T09:48:52.700Z,6.02
2023-02-18T09:51:20.445Z,5.09
2023-02-18T09:53:49.971Z,8.71
2023-02-18T09:56:31.518Z,7.62
2023-02-18T09:59:04.208Z,6.21
2023-02-18T10:01:35.184Z,5.52
2023-02-18T10:04:21.136Z,6.14
2023-02-18T10:06:50.591Z,5.83
2023-02-18T10:09:25.468Z,5.39
2023-02-18T10:11:57.235Z,7.36
2023-02-18T10:14:26.276Z,8.24
2023-02-18T10:16:54.234Z,6.98
2023-02-18T10:19:37.284Z,8.24
2023-02-18T10:22:08.689Z,6.92
2023-02-18T10:24:43.749Z,6.19
2023-02-18T10:27:23.962Z,5.81
2023-02-18T10:29:51.302Z,7.03
2023-02-18T10:32:32.729Z,5.00
2023-02-18T10:35:24.018Z,5.73
2023-02-18T10:38:05.554Z,7.50
2023-02-18T10:40:53.949Z,12.60
2023-02-18T10:43:26.019Z,6.50
2023-02-18T10:46:34.659Z,6.26
2023-02-18T10:49:13.389Z,8.85
2023-02-18T10:51:50.349Z,10.11
2023-02-18T10:54:16.895Z,9.04
2023-02-18T10:56:49.721Z,10.42
2023-02-18T10:59:32.179Z,7.27
2023-02-18T11:02:02.796Z,4.90
2023-02-18T11:04:40.217Z,4.07
2023-02-18T11:07:19.320Z,4.41
2023-02-18T11:10:00.334Z,4.90
2023-02-18T11:12:42.516Z,7.46
2023-02-18T11:15:15.001Z,5.43
2023-02-18T11:17:43.247Z,4.86
2023-02-18T11:20:33.400Z,6.26
2023-02-18T11:23:18.088Z,13.42
2023-02-18T11:26:04.640Z,4.28
2023-02-18T11:28:39.776Z,4.71
2023-02-18T11:31:07.143Z,4.28
2023-02-18T11:33:35.782Z,3.71
2023-02-18T11:36:19.555Z,3.94
2023-02-18T11:38:56.600Z,3.93
2023-02-18T11:41:39.852Z,4.59
2023-02-18T11:44:23.187Z,5.95
2023-02-18T11:47:12.636Z,4.91
2023-02-18T11:49:41.101Z,3.91
2023-02-18T11:52:23.799Z,6.21
2023-02-18T11:55:06.201Z,4.63
2023-02-18T11:57:38.370Z,3.78
2023-02-18T12:00:21.496Z,5.86
2023-02-18T12:02:49.331Z,4.75
2023-02-18T12:05:24.346Z,5.41
2023-02-18T12:08:09.998Z,4.13
2023-02-18T12:10:42.972Z,4.93
2023-02-18T12:13:24.884Z,5.63
2023-02-18T12:16:29.798Z,4.59
2023-02-18T12:19:31.735Z,4.30
2023-02-18T12:22:10.225Z,3.98
2023-02-18T12:25:05.940Z,3.99
2023-02-18T12:27:50.331Z,4.01
2023-02-18T12:30:29.207Z,4.01
2023-02-18T12:33:37.159Z,4.22
2023-02-18T12:36:10.053Z,3.27
2023-02-18T12:38:58.060Z,3.50
2023-02-18T12:42:03.668Z,4.11
2023-02-18T12:44:36.392Z,7.04
2023-02-18T12:47:18.104Z,11.21
2023-02-18T12:50:23.168Z,6.23
2023-02-18T12:53:27.410Z,6.47
2023-02-18T12:56:33.877Z,4.73
2023-02-18T12:59:36.628Z,4.07
2023-02-18T13:02:27.684Z,4.03
2023-02-18T13:05:18.586Z,3.24
2023-02-18T13:08:03.073Z,3.21
2023-02-18T13:10:43.629Z,3.52
2023-02-18T13:13:17.709Z,2.96
2023-02-18T13:15:54.314Z,3.06
2023-02-18T13:18:30.041Z,3.18
2023-02-18T13:21:05.457Z,3.17
2023-02-18T13:23:38.625Z,3.19
2023-02-18T13:26:12.668Z,3.56
2023-02-18T13:28:53.001Z,4.55
2023-02-18T13:31:40.377Z,3.40
2023-02-18T13:34:36.473Z,4.64
2023-02-18T13:37:12.782Z,5.65
2023-02-18T13:39:57.404Z,5.34
2023-02-18T13:42:34.573Z,7.37
2023-02-18T13:45:06.974Z,9.58
2023-02-18T13:47:49.705Z,11.27
2023-02-18T13:50:26.893Z,10.65
2023-02-18T13:53:21.142Z,9.32
2023-02-18T13:55:56.648Z,10.88
2023-02-18T13:58:35.469Z,14.68
2023-02-18T14:01:02.048Z,8.43
2023-02-18T14:03:43.842Z,4.41
2023-02-18T14:06:17.007Z,2.72
2023-02-18T14:08:44.844Z,3.55
2023-02-18T14:11:11.309Z,2.73
2023-02-18T14:14:14.025Z,3.14
2023-02-18T14:17:17.960Z,3.42
2023-02-18T14:20:00.145Z,3.65
2023-02-18T14:22:34.417Z,3.64
2023-02-18T14:25:21.154Z,3.10
2023-02-18T14:28:04.387Z,3.17
2023-02-18T14:30:40.884Z,3.20
2023-02-18T14:33:16.329Z,3.98
2023-02-18T14:36:16.084Z,3.61
2023-02-18T14:39:03.253Z,2.93
2023-02-18T14:42:04.909Z,3.33
2023-02-18T14:44:37.322Z,4.92
2023-02-18T14:47:19.023Z,3.69
2023-02-18T14:49:53.980Z,3.67
2023-02-18T14:53:04.008Z,4.28
2023-02-18T14:55:35.746Z,3.53
2023-02-18T14:58:08.154Z,3.75
2023-02-18T15:00:41.384Z,4.54
2023-02-18T15:03:17.230Z,3.97
2023-02-18T15:05:45.249Z,3.60
2023-02-18T15:08:17.836Z,3.84
2023-02-18T15:10:53.848Z,7.12
2023-02-18T15:13:33.829Z,3.74
2023-02-18T15:16:06.072Z,3.03
2023-02-18T15:18:37.482Z,3.54
2023-02-18T15:21:08.020Z,3.47
2023-02-18T15:23:39.425Z,2.77
2023-02-18T15:26:09.616Z,3.26
2023-02-18T15:28:51.285Z,3.10
2023-02-18T15:31:18.155Z,3.33
2023-02-18T15:33:47.247Z,3.63
2023-02-18T15:36:14.732Z,2.97
2023-02-18T15:38:42.897Z,2.99
2023-02-18T15:41:15.754Z,3.01
2023-02-18T15:44:00.764Z,2.92
2023-02-18T15:46:28.663Z,2.91
2023-02-18T15:48:57.314Z,3.47
2023-02-18T15:51:28.821Z,3.01
2023-02-18T15:54:02.751Z,3.09
2023-02-18T15:56:43.414Z,3.33
2023-02-18T15:59:34.513Z,3.21
2023-02-18T16:02:09.951Z,3.81
2023-02-18T16:04:45.435Z,4.12
2023-02-18T16:07:30.668Z,3.99
2023-02-18T16:10:22.974Z,3.87
2023-02-18T16:13:01.759Z,4.54
2023-02-18T16:15:50.255Z,4.42
2023-02-18T16:18:38.098Z,4.70
2023-02-18T16:21:22.167Z,4.27
2023-02-18T16:23:58.557Z,4.44
2023-02-18T16:26:41.694Z,3.99
2023-02-18T16:29:23.693Z,4.34
2023-02-18T16:31:50.279Z,4.42
2023-02-18T16:34:19.008Z,4.16
2023-02-18T16:37:04.436Z,4.70
2023-02-18T16:39:34.753Z,4.74
2023-02-18T16:42:01.296Z,4.99
2023-02-18T16:44:27.970Z,4.87
2023-02-18T16:46:54.637Z,4.49
2023-02-18T16:49:21.293Z,4.84
2023-02-18T16:51:48.966Z,4.88
2023-02-18T16:54:16.233Z,4.92
2023-02-18T16:56:42.837Z,4.89
2023-02-18T16:59:15.653Z,5.11
2023-02-18T17:01:47.588Z,5.38
2023-02-18T17:04:17.034Z,5.52
2023-02-18T17:06:45.188Z,5.44
2023-02-18T17:09:22.101Z,5.99
2023-02-18T17:11:52.033Z,6.40
2023-02-18T17:14:20.535Z,7.41
2023-02-18T17:16:50.015Z,6.25
2023-02-18T17:19:17.255Z,5.74
2023-02-18T17:21:44.143Z,5.63
2023-02-18T17:24:15.322Z,5.76
2023-02-18T17:26:42.857Z,6.17
2023-02-18T17:29:09.454Z,5.91
2023-02-18T17:31:46.842Z,6.66
2023-02-18T17:34:26.726Z,7.99
2023-02-18T17:36:54.039Z,6.96
2023-02-18T17:39:21.673Z,6.65
2023-02-18T17:41:48.429Z,6.62
2023-02-18T17:44:23.747Z,5.78
2023-02-18T17:46:50.437Z,5.63
2023-02-18T17:49:17.201Z,5.73
2023-02-18T17:51:45.522Z,5.66
2023-02-18T17:54:14.689Z,6.29
2023-02-18T17:56:42.094Z,6.48
2023-02-18T17:59:08.702Z,9.82
2023-02-18T18:01:35.957Z,6.94
2023-02-18T18:04:03.296Z,6.04
2023-02-18T18:06:30.075Z,6.83
2023-02-18T18:08:56.619Z,6.32
2023-02-18T18:11:24.926Z,6.38
2023-02-18T18:13:56.943Z,7.03
2023-02-18T18:16:23.587Z,7.19
2023-02-18T18:18:50.192Z,7.15
2023-02-18T18:21:37.447Z,7.77
2023-02-18T18:24:04.549Z,7.85
2023-02-18T18:26:31.352Z,8.94
2023-02-18T18:28:58.025Z,8.88
2023-02-18T18:31:24.857Z,10.71
2023-02-18T18:33:53.477Z,16.17
2023-02-18T18:36:21.944Z,9.83
2023-02-18T18:38:50.707Z,10.29
2023-02-18T18:41:20.596Z,10.89
2023-02-18T18:43:47.794Z,10.79
2023-02-18T18:46:14.760Z,11.79
2023-02-18T18:48:41.578Z,13.13
2023-02-18T18:51:16.609Z,14.20
2023-02-18T18:53:43.269Z,13.43
2023-02-18T18:56:12.006Z,14.23
2023-02-18T18:58:38.577Z,14.11
2023-02-18T19:01:13.008Z,14.41
2023-02-18T19:03:41.414Z,15.87
2023-02-18T19:06:11.078Z,16.28
2023-02-18T19:08:37.704Z,17.19
2023-02-18T19:11:04.976Z,19.90
2023-02-18T19:13:35.554Z,21.95
2023-02-18T19:16:08.103Z,21.47
2023-02-18T19:18:35.292Z,21.78
2023-02-18T19:21:02.188Z,20.45
2023-02-18T19:23:28.863Z,21.85
2023-02-18T19:25:56.321Z,22.28
2023-02-18T19:28:23.048Z,21.44
2023-02-18T19:30:49.612Z,24.00
2023-02-18T19:33:17.533Z,21.73
2023-02-18T19:35:44.371Z,20.98
2023-02-18T19:38:14.043Z,21.60
2023-02-18T19:40:41.323Z,21.85
2023-02-18T19:43:08.471Z,21.58
2023-02-18T19:45:35.635Z,21.69
2023-02-18T19:48:02.349Z,22.14
2023-02-18T19:50:31.186Z,22.70
2023-02-18T19:52:59.027Z,22.16
2023-02-18T19:55:25.788Z,21.50
2023-02-18T19:57:52.333Z,21.26
2023-02-18T20:00:22.198Z,22.03
2023-02-18T20:02:49.327Z,22.58
2023-02-18T20:05:16.283Z,23.81
2023-02-18T20:07:42.937Z,23.15
2023-02-18T20:10:16.143Z,23.06
2023-02-18T20:12:43.086Z,22.76
2023-02-18T20:15:10.211Z,22.22
2023-02-18T20:17:39.157Z,21.92
2023-02-18T20:20:07.696Z,21.77
2023-02-18T20:22:34.361Z,21.16
2023-02-18T20:25:01.027Z,20.75
2023-02-18T20:27:27.614Z,19.72
2023-02-18T20:29:54.134Z,20.09
2023-02-18T20:32:20.804Z,19.07
2023-02-18T20:34:47.480Z,19.13
2023-02-18T20:37:14.048Z,19.32
2023-02-18T20:39:40.732Z,19.14
2023-02-18T20:42:15.990Z,18.55
2023-02-18T20:44:43.932Z,17.88
2023-02-18T20:47:12.733Z,17.82
2023-02-18T20:49:40.427Z,17.61
2023-02-18T20:52:09.432Z,17.53
2023-02-18T20:54:36.572Z,17.33
2023-02-18T20:57:03.270Z,17.49
2023-02-18T20:59:33.209Z,16.62
2023-02-18T21:02:00.312Z,15.83
2023-02-18T21:04:27.159Z,15.23
2023-02-18T21:06:54.155Z,15.33
2023-02-18T21:09:21.473Z,15.24
2023-02-18T21:11:48.965Z,14.67
2023-02-18T21:14:15.985Z,14.22
2023-02-18T21:16:42.881Z,14.43
2023-02-18T21:19:14.950Z,14.18
2023-02-18T21:21:42.622Z,14.24
2023-02-18T21:24:09.323Z,14.47
2023-02-18T21:26:37.000Z,14.40
2023-02-18T21:29:07.320Z,14.98
2023-02-18T21:31:37.642Z,15.17
2023-02-18T21:34:06.412Z,16.52
2023-02-18T21:36:33.971Z,17.02
2023-02-18T21:39:03.348Z,18.34
2023-02-18T21:41:30.978Z,18.96
2023-02-18T21:43:57.773Z,19.69
2023-02-18T21:46:28.738Z,20.60
2023-02-18T21:49:01.944Z,21.15
2023-02-18T21:51:56.546Z,22.03
2023-02-18T21:54:31.801Z,22.77
2023-02-18T21:57:02.704Z,22.46
2023-02-18T21:59:30.594Z,23.23
2023-02-18T22:02:00.981Z,23.31
2023-02-18T22:04:30.598Z,23.25
2023-02-18T22:06:58.602Z,22.74
2023-02-18T22:09:26.085Z,22.36
2023-02-18T22:11:53.196Z,23.14
2023-02-18T22:14:20.322Z,23.50
2023-02-18T22:16:47.155Z,23.06
2023-02-18T22:19:14.845Z,22.72
2023-02-18T22:21:41.972Z,22.62
2023-02-18T22:24:10.861Z,22.42
2023-02-18T22:26:37.716Z,22.14
2023-02-18T22:29:04.468Z,21.54
2023-02-18T22:31:32.401Z,21.60
2023-02-18T22:34:00.587Z,20.23
2023-02-18T22:36:29.146Z,20.32
2023-02-18T22:38:57.484Z,19.47
2023-02-18T22:41:25.961Z,20.07
2023-02-18T22:43:57.936Z,19.73
2023-02-18T22:46:25.190Z,18.59
2023-02-18T22:48:52.571Z,18.06
2023-02-18T22:51:28.708Z,17.17
2023-02-18T22:53:57.777Z,17.11
2023-02-18T22:56:26.525Z,16.73
2023-02-18T22:58:54.625Z,16.05
2023-02-18T23:01:31.254Z,15.66
2023-02-18T23:04:05.535Z,15.02
2023-02-18T23:06:32.230Z,14.74
2023-02-18T23:08:58.914Z,14.20
2023-02-18T23:11:25.686Z,13.87
2023-02-18T23:14:13.886Z,13.23
2023-02-18T23:16:59.670Z,13.47
2023-02-18T23:19:31.579Z,13.16
2023-02-18T23:21:58.120Z,13.08
2023-02-18T23:24:24.672Z,12.51
2023-02-18T23:26:52.302Z,12.85
2023-02-18T23:29:18.986Z,12.74
2023-02-18T23:31:45.707Z,12.78
2023-02-18T23:34:14.626Z,12.69
2023-02-18T23:36:42.781Z,12.16
2023-02-18T23:39:11.310Z,12.27
2023-02-18T23:41:38.079Z,12.01
2023-02-18T23:44:10.552Z,12.35
2023-02-18T23:46:37.808Z,12.11
2023-02-18T23:49:05.481Z,11.83
2023-02-18T23:51:32.753Z,11.93
2023-02-18T23:54:02.685Z,11.49
2023-02-18T23:56:29.643Z,10.63
2023-02-18T23:59:02.317Z,10.77
